Flatwood, Texas
Current Conditions -  °F | °C
As of 5:53 PM on Wednesday 28 Jan 2015 (Local Time) from KTYR Reporting Station
Clear Clear  
Wind Chill: 72°   Ceiling: Unl
Heat Index: 72°   Visibility: 10mi
Dew Point: 44°   Wind: 12mph
Humidity: 37%   Direction: 180°S
Pressure: 30.04"   Gusts: NA
Location:  32.416°N, 95.6606°W
Report Text: KTYR 282353Z 18010KT 10SM CLR 22/07 A3004 RMK AO2 SLP170 T02220067 10267 20222 55002
Loading
Personal Weather Stations






























Interactive Weather Map New forecast layout! Learn more

10-Day Weather Forecast

Advertisements
Track Severe Weather on mobile